createdAt,value
2024-05-09T00:01:56.337Z,14.11
2024-05-09T00:06:59.134Z,14.02
2024-05-09T00:12:02.401Z,13.95
2024-05-09T00:17:05.428Z,13.85
2024-05-09T00:22:10.198Z,13.77
2024-05-09T00:27:13.506Z,13.67
2024-05-09T00:32:16.463Z,13.60
2024-05-09T00:37:19.342Z,13.57
2024-05-09T00:42:22.420Z,13.56
2024-05-09T00:47:25.582Z,13.54
2024-05-09T00:52:28.988Z,13.49
2024-05-09T00:57:32.452Z,13.42
2024-05-09T01:02:35.820Z,13.32
2024-05-09T01:07:38.956Z,13.22
2024-05-09T01:12:41.778Z,13.20
2024-05-09T01:17:46.139Z,13.23
2024-05-09T01:22:50.538Z,13.25
2024-05-09T01:27:53.347Z,13.21
2024-05-09T01:32:56.847Z,13.09
2024-05-09T01:38:00.239Z,12.97
2024-05-09T01:43:03.511Z,12.85
2024-05-09T01:48:07.050Z,12.74
2024-05-09T01:53:14.923Z,12.61
2024-05-09T01:58:18.265Z,12.49
2024-05-09T02:03:21.747Z,12.38
2024-05-09T02:08:24.736Z,12.33
2024-05-09T02:13:27.731Z,12.27
2024-05-09T02:18:30.903Z,12.18
2024-05-09T02:23:33.954Z,12.09
2024-05-09T02:28:36.866Z,12.02
2024-05-09T02:33:39.857Z,11.93
2024-05-09T02:38:43.070Z,11.85
2024-05-09T02:43:46.018Z,11.77
2024-05-09T02:48:49.025Z,11.71
2024-05-09T02:53:51.960Z,11.69
2024-05-09T02:58:56.752Z,12.15
2024-05-09T03:03:59.858Z,13.03
2024-05-09T03:09:04.777Z,13.38
2024-05-09T03:14:07.726Z,13.73
2024-05-09T03:19:10.865Z,13.86
2024-05-09T03:24:14.017Z,13.90
2024-05-09T03:29:16.928Z,13.90
2024-05-09T03:34:19.908Z,13.85
2024-05-09T03:39:22.836Z,13.63
2024-05-09T03:44:25.949Z,13.54
2024-05-09T03:49:29.079Z,13.25
2024-05-09T03:54:35.517Z,12.89
2024-05-09T03:59:38.361Z,12.60
2024-05-09T04:04:42.144Z,12.45
2024-05-09T04:09:45.002Z,12.36
2024-05-09T04:14:47.893Z,12.32
2024-05-09T04:19:50.826Z,12.29
2024-05-09T04:24:53.758Z,12.35
2024-05-09T04:29:56.643Z,12.40
2024-05-09T04:34:59.512Z,12.47
2024-05-09T04:40:03.092Z,12.49
2024-05-09T04:45:06.653Z,12.50
2024-05-09T04:50:11.850Z,12.52
2024-05-09T04:55:17.699Z,12.62
2024-05-09T05:00:28.503Z,12.68
2024-05-09T05:05:40.302Z,12.75
2024-05-09T05:10:44.018Z,12.76
2024-05-09T05:15:47.863Z,12.81
2024-05-09T05:20:50.996Z,12.89
2024-05-09T05:25:54.934Z,12.96
2024-05-09T05:30:58.143Z,13.04
2024-05-09T05:36:00.994Z,13.17
2024-05-09T05:41:04.150Z,13.36
2024-05-09T05:46:07.178Z,13.53
2024-05-09T05:51:10.342Z,13.65
2024-05-09T05:56:13.332Z,13.71
2024-05-09T06:01:16.146Z,13.77
2024-05-09T06:06:18.991Z,13.83
2024-05-09T06:11:22.064Z,13.92
2024-05-09T06:16:25.011Z,13.98
2024-05-09T06:21:27.993Z,14.05
2024-05-09T06:26:30.952Z,14.08
2024-05-09T06:31:39.771Z,14.15
2024-05-09T06:36:42.723Z,14.23
2024-05-09T06:41:45.581Z,14.31
2024-05-09T06:46:48.993Z,14.40
2024-05-09T06:51:52.066Z,14.53
2024-05-09T06:56:55.030Z,14.60
2024-05-09T07:01:57.896Z,14.68
2024-05-09T07:07:00.755Z,14.74
2024-05-09T07:12:04.624Z,14.82
2024-05-09T07:17:07.705Z,14.90
2024-05-09T07:22:10.795Z,15.00
2024-05-09T07:27:13.852Z,15.10
2024-05-09T07:32:16.808Z,15.17
2024-05-09T07:37:19.707Z,15.26
2024-05-09T07:42:22.783Z,15.38
2024-05-09T07:48:56.936Z,15.48
2024-05-09T07:58:00.624Z,15.74
2024-05-09T08:03:04.045Z,15.88
2024-05-09T08:08:07.964Z,15.98
2024-05-09T08:13:11.047Z,16.11
2024-05-09T08:18:14.251Z,16.24
2024-05-09T08:23:17.909Z,16.36
2024-05-09T08:28:21.252Z,16.48
2024-05-09T08:33:24.249Z,16.64
2024-05-09T08:38:29.930Z,16.80
2024-05-09T08:43:32.827Z,16.93
2024-05-09T08:48:40.218Z,17.05
2024-05-09T08:53:43.243Z,17.24
2024-05-09T08:58:49.066Z,17.42
2024-05-09T09:03:53.618Z,17.53
2024-05-09T09:08:57.773Z,17.91
2024-05-09T09:14:00.886Z,18.43
2024-05-09T09:19:04.659Z,18.78
2024-05-09T09:24:09.934Z,19.00
2024-05-09T09:29:19.944Z,19.25
2024-05-09T09:34:27.878Z,19.35
2024-05-09T09:39:38.939Z,19.52
2024-05-09T09:44:47.819Z,19.64
2024-05-09T09:49:55.614Z,19.77
2024-05-09T09:54:59.487Z,19.91
2024-05-09T10:00:07.269Z,20.04
2024-05-09T10:05:15.440Z,20.18
2024-05-09T10:10:32.024Z,20.33
2024-05-09T10:15:46.460Z,20.56
2024-05-09T10:20:51.714Z,20.83
2024-05-09T10:25:58.882Z,21.07
2024-05-09T10:31:15.879Z,21.31
2024-05-09T10:36:25.639Z,21.53
2024-05-09T10:41:28.513Z,21.69
2024-05-09T10:46:31.822Z,21.87
2024-05-09T10:51:35.608Z,22.10
2024-05-09T10:56:38.635Z,22.23
2024-05-09T11:01:41.740Z,22.27
2024-05-09T11:06:46.461Z,22.30
2024-05-09T11:11:49.749Z,22.40
2024-05-09T11:17:05.673Z,22.48
2024-05-09T11:22:08.944Z,22.65
2024-05-09T11:27:12.765Z,22.75
2024-05-09T11:32:16.584Z,22.81
2024-05-09T11:37:19.845Z,22.91
2024-05-09T11:42:22.782Z,23.05
2024-05-09T11:47:25.859Z,23.16
2024-05-09T11:52:28.837Z,23.29
2024-05-09T11:57:32.174Z,23.39
2024-05-09T12:02:35.080Z,23.55
2024-05-09T12:07:37.954Z,23.75
2024-05-09T12:12:40.914Z,23.91
2024-05-09T12:17:44.853Z,23.92
2024-05-09T12:22:48.606Z,23.86
2024-05-09T12:27:51.882Z,24.06
2024-05-09T12:32:54.920Z,24.32
2024-05-09T12:37:57.878Z,24.42
2024-05-09T12:43:00.873Z,24.47
2024-05-09T12:48:06.882Z,24.56
2024-05-09T12:53:10.091Z,24.69
2024-05-09T12:58:13.711Z,24.95
2024-05-09T13:03:16.807Z,25.17
2024-05-09T13:08:20.390Z,25.22
2024-05-09T13:13:23.415Z,25.19
2024-05-09T13:18:26.251Z,25.13
2024-05-09T13:23:29.314Z,25.23
2024-05-09T13:28:33.580Z,25.32
2024-05-09T13:33:36.648Z,25.41
2024-05-09T13:38:39.636Z,25.41
2024-05-09T13:43:42.525Z,25.58
2024-05-09T13:48:46.167Z,25.78
2024-05-09T13:53:49.103Z,25.90
2024-05-09T13:58:52.310Z,25.87
2024-05-09T14:03:55.401Z,25.76
2024-05-09T14:08:58.531Z,25.67
2024-05-09T14:14:01.987Z,25.57
2024-05-09T14:19:05.047Z,25.36
2024-05-09T14:24:08.246Z,25.09
2024-05-09T14:29:11.161Z,24.81
2024-05-09T14:34:14.342Z,24.45
2024-05-09T14:39:17.375Z,24.00
2024-05-09T14:44:20.435Z,23.59
2024-05-09T14:49:23.310Z,23.24
2024-05-09T14:54:26.130Z,22.96
2024-05-09T14:59:29.013Z,22.66
2024-05-09T15:04:32.152Z,22.50
2024-05-09T15:09:36.120Z,22.34
2024-05-09T15:14:39.007Z,22.11
2024-05-09T15:19:42.119Z,21.87
2024-05-09T15:24:46.613Z,21.73
2024-05-09T15:29:49.484Z,21.65
2024-05-09T15:34:52.591Z,21.61
2024-05-09T15:39:55.509Z,21.61
2024-05-09T15:44:58.635Z,21.63
2024-05-09T15:50:01.660Z,21.62
2024-05-09T15:55:05.702Z,21.61
2024-05-09T16:00:15.243Z,21.59
2024-05-09T16:05:24.979Z,21.56
2024-05-09T16:10:32.648Z,21.51
2024-05-09T16:15:37.121Z,21.37
2024-05-09T16:20:42.292Z,21.32
2024-05-09T16:25:48.080Z,21.27
2024-05-09T16:30:51.546Z,21.20
2024-05-09T16:35:54.499Z,21.10
2024-05-09T16:40:57.481Z,21.03
2024-05-09T16:46:01.427Z,20.98
2024-05-09T16:51:05.019Z,20.95
2024-05-09T16:56:08.222Z,20.92
2024-05-09T17:01:13.630Z,20.89
2024-05-09T17:06:17.185Z,20.85
2024-05-09T17:11:20.209Z,20.82
2024-05-09T17:16:23.263Z,20.84
2024-05-09T17:21:26.413Z,20.81
2024-05-09T17:26:30.993Z,20.75
2024-05-09T17:31:34.021Z,20.67
2024-05-09T17:36:37.197Z,20.58
2024-05-09T17:41:40.184Z,20.47
2024-05-09T17:46:43.127Z,20.31
2024-05-09T17:51:55.543Z,20.16
2024-05-09T17:56:58.832Z,20.06
2024-05-09T18:02:02.175Z,19.96
2024-05-09T18:07:05.730Z,19.82
2024-05-09T18:12:08.850Z,19.65
2024-05-09T18:17:13.347Z,19.46
2024-05-09T18:22:16.439Z,19.25
2024-05-09T18:27:19.377Z,19.02
2024-05-09T18:32:22.323Z,18.80
2024-05-09T18:37:25.504Z,18.65
2024-05-09T18:42:28.479Z,18.45
2024-05-09T18:47:32.199Z,18.30
2024-05-09T18:52:35.115Z,18.22
2024-05-09T18:57:37.968Z,18.03
2024-05-09T19:02:41.028Z,17.81
2024-05-09T19:07:44.409Z,17.69
2024-05-09T19:12:47.441Z,17.59
2024-05-09T19:17:50.543Z,17.55
2024-05-09T19:22:53.548Z,17.48
2024-05-09T19:27:56.703Z,17.39
2024-05-09T19:32:59.904Z,17.28
2024-05-09T19:38:03.718Z,17.19
2024-05-09T19:43:07.119Z,17.10
2024-05-09T19:48:10.724Z,17.00
2024-05-09T19:53:14.518Z,16.91
2024-05-09T19:58:18.446Z,16.80
2024-05-09T20:03:21.590Z,16.68
2024-05-09T20:08:24.985Z,16.58
2024-05-09T20:13:28.109Z,16.51
2024-05-09T20:18:31.311Z,16.44
2024-05-09T20:23:34.305Z,16.40
2024-05-09T20:28:37.601Z,16.33
2024-05-09T20:33:40.791Z,16.28
2024-05-09T20:38:43.914Z,16.24
2024-05-09T20:43:52.071Z,16.18
2024-05-09T20:48:59.485Z,16.12
2024-05-09T20:54:03.388Z,16.05
2024-05-09T20:59:11.082Z,15.99
2024-05-09T21:04:16.153Z,15.95
2024-05-09T21:09:25.521Z,15.88
2024-05-09T21:14:28.737Z,15.74
2024-05-09T21:19:31.632Z,15.64
2024-05-09T21:24:34.598Z,15.56
2024-05-09T21:29:37.517Z,15.46
2024-05-09T21:34:40.513Z,15.37
2024-05-09T21:39:43.683Z,15.26
2024-05-09T21:44:46.655Z,15.18
2024-05-09T21:49:49.779Z,15.13
2024-05-09T21:54:52.790Z,15.05
2024-05-09T21:59:55.775Z,14.96
2024-05-09T22:04:59.811Z,14.87
2024-05-09T22:10:10.073Z,14.76
2024-05-09T22:15:21.078Z,14.64
2024-05-09T22:20:32.879Z,14.50
2024-05-09T22:25:39.509Z,14.33
2024-05-09T22:30:44.023Z,14.19
2024-05-09T22:35:48.038Z,14.08
2024-05-09T22:40:52.207Z,13.95
2024-05-09T22:45:55.707Z,13.82
2024-05-09T22:50:59.085Z,13.74
2024-05-09T22:56:02.551Z,13.68
2024-05-09T23:01:05.848Z,13.60
2024-05-09T23:06:08.950Z,13.51
2024-05-09T23:11:11.981Z,13.44
2024-05-09T23:16:14.994Z,13.37
2024-05-09T23:21:18.069Z,13.30
2024-05-09T23:26:20.973Z,13.24
2024-05-09T23:31:24.064Z,13.14
2024-05-09T23:36:29.075Z,12.99
2024-05-09T23:41:32.136Z,12.86
2024-05-09T23:46:35.410Z,12.72
2024-05-09T23:51:38.364Z,12.60
2024-05-09T23:56:41.278Z,12.49
